sensor_id;sensor_type;location;lat;lon;timestamp;P1;durP1;ratioP1;P2;durP2;ratioP2
27269;SDS011;14769;56.934;24.176;2023-02-15T10:13:44;63.67;;;19.58;;
27269;SDS011;14769;56.934;24.176;2023-02-15T10:16:45;58.63;;;16.25;;
27269;SDS011;14769;56.934;24.176;2023-02-15T10:20:56;45.63;;;15.35;;
27269;SDS011;14769;56.934;24.176;2023-02-15T10:22:08;46.17;;;15.70;;
27269;SDS011;14769;56.934;24.176;2023-02-15T10:26:49;54.42;;;14.73;;
27269;SDS011;14769;56.934;24.176;2023-02-15T10:28:17;43.65;;;15.30;;
27269;SDS011;14769;56.934;24.176;2023-02-15T10:29:42;49.95;;;16.92;;
27269;SDS011;14769;56.934;24.176;2023-02-15T10:32:28;44.03;;;18.20;;
27269;SDS011;14769;56.934;24.176;2023-02-15T10:33:40;45.10;;;18.05;;
27269;SDS011;14769;56.934;24.176;2023-02-15T10:34:54;46.55;;;19.40;;
27269;SDS011;14769;56.934;24.176;2023-02-15T10:38:54;49.28;;;20.45;;
27269;SDS011;14769;56.934;24.176;2023-02-15T10:47:01;39.10;;;16.48;;
27269;SDS011;14769;56.934;24.176;2023-02-15T10:50:51;44.20;;;17.02;;
27269;SDS011;14769;56.934;24.176;2023-02-15T10:52:03;40.63;;;16.55;;
27269;SDS011;14769;56.934;24.176;2023-02-15T10:57:22;30.48;;;14.35;;
27269;SDS011;14769;56.934;24.176;2023-02-15T10:59:58;36.20;;;15.48;;
27269;SDS011;14769;56.934;24.176;2023-02-15T11:01:17;34.95;;;16.33;;
27269;SDS011;14769;56.934;24.176;2023-02-15T11:02:37;33.65;;;15.55;;
27269;SDS011;14769;56.934;24.176;2023-02-15T11:22:27;27.77;;;12.80;;
27269;SDS011;14769;56.934;24.176;2023-02-15T11:23:31;30.75;;;14.20;;
27269;SDS011;14769;56.934;24.176;2023-02-15T11:24:49;28.58;;;14.15;;
27269;SDS011;14769;56.934;24.176;2023-02-15T11:25:55;26.52;;;13.77;;
27269;SDS011;14769;56.934;24.176;2023-02-15T11:28:38;26.85;;;12.43;;
27269;SDS011;14769;56.934;24.176;2023-02-15T11:30:21;23.85;;;12.15;;
27269;SDS011;14769;56.934;24.176;2023-02-15T11:32:43;29.27;;;12.80;;
27269;SDS011;14769;56.934;24.176;2023-02-15T11:33:42;21.75;;;11.73;;
27269;SDS011;14769;56.934;24.176;2023-02-15T11:36:22;25.65;;;12.77;;
27269;SDS011;14769;56.934;24.176;2023-02-15T11:37:50;22.92;;;12.02;;
27269;SDS011;14769;56.934;24.176;2023-02-15T11:39:01;21.33;;;11.80;;
27269;SDS011;14769;56.934;24.176;2023-02-15T11:40:14;21.73;;;12.27;;
27269;SDS011;14769;56.934;24.176;2023-02-15T11:41:24;20.17;;;11.65;;
27269;SDS011;14769;56.934;24.176;2023-02-15T11:42:31;21.13;;;12.30;;
27269;SDS011;14769;56.934;24.176;2023-02-15T11:43:44;21.90;;;12.05;;
27269;SDS011;14769;56.934;24.176;2023-02-15T11:46:32;22.35;;;12.13;;
27269;SDS011;14769;56.934;24.176;2023-02-15T11:48:00;18.93;;;10.57;;
27269;SDS011;14769;56.934;24.176;2023-02-15T11:49:23;19.98;;;10.98;;
27269;SDS011;14769;56.934;24.176;2023-02-15T11:50:28;20.52;;;10.95;;
27269;SDS011;14769;56.934;24.176;2023-02-15T11:51:33;19.88;;;10.82;;
27269;SDS011;14769;56.934;24.176;2023-02-15T11:53:10;19.48;;;10.82;;
27269;SDS011;14769;56.934;24.176;2023-02-15T11:54:26;19.80;;;11.75;;
27269;SDS011;14769;56.934;24.176;2023-02-15T11:57:11;18.45;;;11.00;;
27269;SDS011;14769;56.934;24.176;2023-02-15T12:01:44;19.23;;;11.65;;
27269;SDS011;14769;56.934;24.176;2023-02-15T12:03:19;17.30;;;11.15;;
27269;SDS011;14769;56.934;24.176;2023-02-15T12:04:39;21.52;;;11.60;;
27269;SDS011;14769;56.934;24.176;2023-02-15T12:06:03;15.95;;;10.45;;
27269;SDS011;14769;56.934;24.176;2023-02-15T12:07:14;16.52;;;10.57;;
27269;SDS011;14769;56.934;24.176;2023-02-15T12:10:05;21.52;;;10.75;;
27269;SDS011;14769;56.934;24.176;2023-02-15T12:11:44;15.70;;;10.77;;
27269;SDS011;14769;56.934;24.176;2023-02-15T12:14:17;19.60;;;10.90;;
27269;SDS011;14769;56.934;24.176;2023-02-15T12:15:29;15.20;;;9.90;;
27269;SDS011;14769;56.934;24.176;2023-02-15T12:16:44;16.13;;;10.52;;
27269;SDS011;14769;56.934;24.176;2023-02-15T12:17:54;16.08;;;9.85;;
27269;SDS011;14769;56.934;24.176;2023-02-15T12:19:05;17.75;;;10.10;;
27269;SDS011;14769;56.934;24.176;2023-02-15T12:20:29;14.40;;;9.90;;
27269;SDS011;14769;56.934;24.176;2023-02-15T12:21:34;14.02;;;9.25;;
27269;SDS011;14769;56.934;24.176;2023-02-15T12:22:46;14.95;;;9.18;;
27269;SDS011;14769;56.934;24.176;2023-02-15T12:25:52;13.70;;;9.40;;
27269;SDS011;14769;56.934;24.176;2023-02-15T12:29:12;12.85;;;9.23;;
27269;SDS011;14769;56.934;24.176;2023-02-15T12:30:33;13.00;;;9.05;;
27269;SDS011;14769;56.934;24.176;2023-02-15T12:31:40;13.95;;;9.20;;
27269;SDS011;14769;56.934;24.176;2023-02-15T12:32:53;12.90;;;8.80;;
27269;SDS011;14769;56.934;24.176;2023-02-15T12:35:43;12.25;;;8.27;;
27269;SDS011;14769;56.934;24.176;2023-02-15T12:36:49;13.27;;;7.88;;
27269;SDS011;14769;56.934;24.176;2023-02-15T12:40:19;10.50;;;7.15;;
27269;SDS011;14769;56.934;24.176;2023-02-15T12:41:25;9.98;;;6.35;;
27269;SDS011;14769;56.934;24.176;2023-02-15T12:42:28;14.85;;;7.95;;
27269;SDS011;14769;56.934;24.176;2023-02-15T12:43:43;10.93;;;6.80;;
27269;SDS011;14769;56.934;24.176;2023-02-15T12:46:13;11.18;;;7.60;;
27269;SDS011;14769;56.934;24.176;2023-02-15T12:47:24;10.45;;;7.72;;
27269;SDS011;14769;56.934;24.176;2023-02-15T12:48:30;11.57;;;8.00;;
27269;SDS011;14769;56.934;24.176;2023-02-15T12:49:33;11.63;;;7.18;;
27269;SDS011;14769;56.934;24.176;2023-02-15T12:50:36;13.77;;;7.30;;
27269;SDS011;14769;56.934;24.176;2023-02-15T12:51:45;12.20;;;7.22;;
27269;SDS011;14769;56.934;24.176;2023-02-15T12:53:02;16.35;;;8.27;;
27269;SDS011;14769;56.934;24.176;2023-02-15T12:54:15;12.00;;;7.28;;
27269;SDS011;14769;56.934;24.176;2023-02-15T12:55:25;11.05;;;7.95;;
27269;SDS011;14769;56.934;24.176;2023-02-15T12:56:31;10.23;;;7.78;;
27269;SDS011;14769;56.934;24.176;2023-02-15T12:57:33;12.48;;;7.85;;
27269;SDS011;14769;56.934;24.176;2023-02-15T12:58:38;11.20;;;7.63;;
27269;SDS011;14769;56.934;24.176;2023-02-15T12:59:47;13.77;;;8.07;;
27269;SDS011;14769;56.934;24.176;2023-02-15T13:01:12;14.75;;;8.30;;
27269;SDS011;14769;56.934;24.176;2023-02-15T13:03:54;15.52;;;9.88;;
27269;SDS011;14769;56.934;24.176;2023-02-15T13:06:14;16.08;;;10.77;;
27269;SDS011;14769;56.934;24.176;2023-02-15T13:07:19;18.92;;;11.27;;
27269;SDS011;14769;56.934;24.176;2023-02-15T13:08:25;17.80;;;11.43;;
27269;SDS011;14769;56.934;24.176;2023-02-15T13:10:40;19.13;;;10.70;;
27269;SDS011;14769;56.934;24.176;2023-02-15T13:12:10;15.40;;;9.65;;
27269;SDS011;14769;56.934;24.176;2023-02-15T13:13:27;17.25;;;10.00;;
27269;SDS011;14769;56.934;24.176;2023-02-15T13:14:34;15.32;;;9.50;;
27269;SDS011;14769;56.934;24.176;2023-02-15T13:15:38;17.90;;;9.80;;
27269;SDS011;14769;56.934;24.176;2023-02-15T13:16:42;16.58;;;10.45;;
27269;SDS011;14769;56.934;24.176;2023-02-15T13:17:47;15.73;;;10.27;;
27269;SDS011;14769;56.934;24.176;2023-02-15T13:18:49;18.65;;;11.52;;
27269;SDS011;14769;56.934;24.176;2023-02-15T13:19:53;19.83;;;11.55;;
27269;SDS011;14769;56.934;24.176;2023-02-15T13:21:00;15.57;;;10.85;;
27269;SDS011;14769;56.934;24.176;2023-02-15T13:22:15;20.30;;;12.95;;
27269;SDS011;14769;56.934;24.176;2023-02-15T13:23:27;18.35;;;12.35;;
27269;SDS011;14769;56.934;24.176;2023-02-15T13:24:39;23.98;;;12.85;;
27269;SDS011;14769;56.934;24.176;2023-02-15T13:25:45;22.30;;;12.75;;
27269;SDS011;14769;56.934;24.176;2023-02-15T13:26:52;23.10;;;13.98;;
27269;SDS011;14769;56.934;24.176;2023-02-15T13:28:14;20.33;;;12.10;;
27269;SDS011;14769;56.934;24.176;2023-02-15T13:29:23;17.88;;;11.95;;
27269;SDS011;14769;56.934;24.176;2023-02-15T13:30:34;19.15;;;11.35;;
27269;SDS011;14769;56.934;24.176;2023-02-15T13:31:39;18.02;;;11.00;;
27269;SDS011;14769;56.934;24.176;2023-02-15T13:32:41;18.50;;;11.45;;
27269;SDS011;14769;56.934;24.176;2023-02-15T13:33:45;18.88;;;11.73;;
27269;SDS011;14769;56.934;24.176;2023-02-15T13:34:53;17.25;;;10.80;;
27269;SDS011;14769;56.934;24.176;2023-02-15T13:38:06;20.35;;;10.07;;
27269;SDS011;14769;56.934;24.176;2023-02-15T13:39:03;13.55;;;9.32;;
27269;SDS011;14769;56.934;24.176;2023-02-15T13:40:22;15.07;;;8.75;;
27269;SDS011;14769;56.934;24.176;2023-02-15T13:41:44;15.73;;;9.45;;
27269;SDS011;14769;56.934;24.176;2023-02-15T13:42:55;15.85;;;9.25;;
27269;SDS011;14769;56.934;24.176;2023-02-15T13:47:06;13.18;;;8.68;;
27269;SDS011;14769;56.934;24.176;2023-02-15T13:52:45;15.40;;;10.05;;
27269;SDS011;14769;56.934;24.176;2023-02-15T13:55:27;18.88;;;10.13;;
27269;SDS011;14769;56.934;24.176;2023-02-15T13:56:43;18.23;;;10.77;;
27269;SDS011;14769;56.934;24.176;2023-02-15T13:58:05;20.20;;;12.18;;
27269;SDS011;14769;56.934;24.176;2023-02-15T13:59:38;22.27;;;11.35;;
27269;SDS011;14769;56.934;24.176;2023-02-15T14:08:08;17.50;;;11.88;;
27269;SDS011;14769;56.934;24.176;2023-02-15T14:09:31;22.90;;;13.18;;
27269;SDS011;14769;56.934;24.176;2023-02-15T14:10:49;19.02;;;12.63;;
27269;SDS011;14769;56.934;24.176;2023-02-15T14:12:04;18.95;;;11.32;;
27269;SDS011;14769;56.934;24.176;2023-02-15T14:18:51;19.15;;;11.85;;
27269;SDS011;14769;56.934;24.176;2023-02-15T14:20:07;22.55;;;12.27;;
27269;SDS011;14769;56.934;24.176;2023-02-15T14:21:32;21.45;;;13.20;;
27269;SDS011;14769;56.934;24.176;2023-02-15T14:22:43;20.80;;;13.10;;
27269;SDS011;14769;56.934;24.176;2023-02-15T14:27:54;22.90;;;12.90;;
27269;SDS011;14769;56.934;24.176;2023-02-15T14:30:38;25.10;;;15.35;;
27269;SDS011;14769;56.934;24.176;2023-02-15T14:31:45;27.52;;;16.05;;
27269;SDS011;14769;56.934;24.176;2023-02-15T14:32:59;24.75;;;15.77;;
27269;SDS011;14769;56.934;24.176;2023-02-15T14:34:21;26.77;;;15.55;;
27269;SDS011;14769;56.934;24.176;2023-02-15T14:35:27;27.13;;;16.38;;
27269;SDS011;14769;56.934;24.176;2023-02-15T14:36:31;29.15;;;16.38;;
27269;SDS011;14769;56.934;24.176;2023-02-15T14:38:56;26.23;;;15.85;;
27269;SDS011;14769;56.934;24.176;2023-02-15T14:42:25;29.35;;;15.25;;
27269;SDS011;14769;56.934;24.176;2023-02-15T14:47:36;26.92;;;15.82;;
27269;SDS011;14769;56.934;24.176;2023-02-15T14:48:55;24.13;;;13.77;;
27269;SDS011;14769;56.934;24.176;2023-02-15T14:51:58;25.40;;;12.43;;
27269;SDS011;14769;56.934;24.176;2023-02-15T14:53:14;24.23;;;12.95;;
27269;SDS011;14769;56.934;24.176;2023-02-15T14:55:40;20.13;;;11.57;;
27269;SDS011;14769;56.934;24.176;2023-02-15T14:56:45;18.20;;;11.07;;
27269;SDS011;14769;56.934;24.176;2023-02-15T14:58:10;20.80;;;11.13;;
27269;SDS011;14769;56.934;24.176;2023-02-15T14:59:18;19.60;;;11.23;;
27269;SDS011;14769;56.934;24.176;2023-02-15T15:00:28;18.27;;;10.95;;
27269;SDS011;14769;56.934;24.176;2023-02-15T15:01:38;17.42;;;10.30;;
27269;SDS011;14769;56.934;24.176;2023-02-15T15:02:54;18.92;;;10.05;;
27269;SDS011;14769;56.934;24.176;2023-02-15T15:03:57;17.70;;;9.73;;
27269;SDS011;14769;56.934;24.176;2023-02-15T15:06:29;19.25;;;9.00;;
27269;SDS011;14769;56.934;24.176;2023-02-15T15:07:44;15.27;;;9.52;;
27269;SDS011;14769;56.934;24.176;2023-02-15T15:08:58;19.15;;;9.05;;
27269;SDS011;14769;56.934;24.176;2023-02-15T15:12:43;15.55;;;7.90;;
27269;SDS011;14769;56.934;24.176;2023-02-15T15:13:58;15.90;;;8.43;;
27269;SDS011;14769;56.934;24.176;2023-02-15T15:15:02;14.60;;;8.40;;
27269;SDS011;14769;56.934;24.176;2023-02-15T15:16:24;14.98;;;7.95;;
27269;SDS011;14769;56.934;24.176;2023-02-15T15:18:44;12.27;;;7.80;;
27269;SDS011;14769;56.934;24.176;2023-02-15T15:20:52;15.98;;;9.10;;
27269;SDS011;14769;56.934;24.176;2023-02-15T15:21:55;16.15;;;9.43;;
27269;SDS011;14769;56.934;24.176;2023-02-15T15:25:47;16.20;;;9.30;;
27269;SDS011;14769;56.934;24.176;2023-02-15T15:26:49;14.18;;;8.80;;
27269;SDS011;14769;56.934;24.176;2023-02-15T15:43:04;16.20;;;11.02;;
27269;SDS011;14769;56.934;24.176;2023-02-15T15:47:13;22.05;;;11.20;;
27269;SDS011;14769;56.934;24.176;2023-02-15T15:50:38;19.77;;;11.13;;
27269;SDS011;14769;56.934;24.176;2023-02-15T15:52:31;19.40;;;11.23;;
27269;SDS011;14769;56.934;24.176;2023-02-15T15:54:41;18.95;;;10.65;;
27269;SDS011;14769;56.934;24.176;2023-02-15T16:01:09;21.20;;;10.80;;
27269;SDS011;14769;56.934;24.176;2023-02-15T16:02:18;21.80;;;12.43;;
27269;SDS011;14769;56.934;24.176;2023-02-15T16:07:35;18.42;;;10.40;;
27269;SDS011;14769;56.934;24.176;2023-02-15T16:10:44;20.02;;;10.95;;
27269;SDS011;14769;56.934;24.176;2023-02-15T16:11:47;19.05;;;10.75;;
27269;SDS011;14769;56.934;24.176;2023-02-15T16:13:11;20.63;;;11.02;;
27269;SDS011;14769;56.934;24.176;2023-02-15T16:16:30;19.95;;;10.45;;
27269;SDS011;14769;56.934;24.176;2023-02-15T16:17:40;18.30;;;11.18;;
27269;SDS011;14769;56.934;24.176;2023-02-15T16:18:59;20.15;;;10.80;;
27269;SDS011;14769;56.934;24.176;2023-02-15T16:20:16;18.80;;;11.30;;
27269;SDS011;14769;56.934;24.176;2023-02-15T16:21:46;19.63;;;11.07;;
27269;SDS011;14769;56.934;24.176;2023-02-15T16:33:54;21.60;;;10.77;;
27269;SDS011;14769;56.934;24.176;2023-02-15T16:59:40;25.40;;;12.77;;
27269;SDS011;14769;56.934;24.176;2023-02-15T17:01:39;23.15;;;12.63;;
27269;SDS011;14769;56.934;24.176;2023-02-15T17:06:58;22.23;;;12.77;;
27269;SDS011;14769;56.934;24.176;2023-02-15T17:09:19;23.17;;;12.43;;
27269;SDS011;14769;56.934;24.176;2023-02-15T17:18:23;28.45;;;14.13;;
27269;SDS011;14769;56.934;24.176;2023-02-15T17:19:28;28.17;;;14.80;;
27269;SDS011;14769;56.934;24.176;2023-02-15T17:26:39;25.02;;;12.70;;
27269;SDS011;14769;56.934;24.176;2023-02-15T17:28:17;26.77;;;13.32;;
27269;SDS011;14769;56.934;24.176;2023-02-15T17:30:56;32.15;;;16.02;;
27269;SDS011;14769;56.934;24.176;2023-02-15T17:32:00;37.25;;;19.13;;
27269;SDS011;14769;56.934;24.176;2023-02-15T17:33:03;41.03;;;21.83;;
27269;SDS011;14769;56.934;24.176;2023-02-15T17:35:39;50.90;;;23.35;;
27269;SDS011;14769;56.934;24.176;2023-02-15T17:36:56;46.28;;;24.15;;
27269;SDS011;14769;56.934;24.176;2023-02-15T17:38:16;64.13;;;28.38;;
27269;SDS011;14769;56.934;24.176;2023-02-15T17:39:22;61.13;;;29.00;;
27269;SDS011;14769;56.934;24.176;2023-02-15T17:40:25;51.88;;;26.85;;
27269;SDS011;14769;56.934;24.176;2023-02-15T17:41:34;40.05;;;19.85;;
27269;SDS011;14769;56.934;24.176;2023-02-15T17:42:38;38.65;;;18.63;;
27269;SDS011;14769;56.934;24.176;2023-02-15T17:43:40;30.15;;;16.35;;
27269;SDS011;14769;56.934;24.176;2023-02-15T17:44:43;30.30;;;16.00;;
27269;SDS011;14769;56.934;24.176;2023-02-15T17:45:48;28.42;;;14.50;;
27269;SDS011;14769;56.934;24.176;2023-02-15T17:46:52;26.85;;;15.07;;
27269;SDS011;14769;56.934;24.176;2023-02-15T17:47:54;29.25;;;15.20;;
27269;SDS011;14769;56.934;24.176;2023-02-15T17:48:58;25.95;;;14.32;;
27269;SDS011;14769;56.934;24.176;2023-02-15T17:50:01;28.38;;;14.30;;
27269;SDS011;14769;56.934;24.176;2023-02-15T17:51:06;27.73;;;14.65;;
27269;SDS011;14769;56.934;24.176;2023-02-15T17:52:12;28.73;;;14.38;;
27269;SDS011;14769;56.934;24.176;2023-02-15T17:53:18;25.83;;;14.27;;
27269;SDS011;14769;56.934;24.176;2023-02-15T17:54:20;29.17;;;14.65;;
27269;SDS011;14769;56.934;24.176;2023-02-15T17:55:45;25.95;;;14.13;;
27269;SDS011;14769;56.934;24.176;2023-02-15T17:56:47;28.08;;;14.70;;
27269;SDS011;14769;56.934;24.176;2023-02-15T17:57:49;27.95;;;14.38;;
27269;SDS011;14769;56.934;24.176;2023-02-15T17:58:52;27.73;;;14.82;;
27269;SDS011;14769;56.934;24.176;2023-02-15T17:59:54;26.08;;;15.05;;
27269;SDS011;14769;56.934;24.176;2023-02-15T18:01:16;29.95;;;15.00;;
27269;SDS011;14769;56.934;24.176;2023-02-15T18:02:39;31.15;;;16.17;;
27269;SDS011;14769;56.934;24.176;2023-02-15T18:04:00;31.45;;;15.68;;
27269;SDS011;14769;56.934;24.176;2023-02-15T18:05:21;26.52;;;14.32;;
27269;SDS011;14769;56.934;24.176;2023-02-15T18:06:44;25.52;;;14.60;;
27269;SDS011;14769;56.934;24.176;2023-02-15T18:08:09;28.33;;;15.02;;
27269;SDS011;14769;56.934;24.176;2023-02-15T18:09:31;29.02;;;15.30;;
27269;SDS011;14769;56.934;24.176;2023-02-15T18:10:52;36.83;;;16.10;;
27269;SDS011;14769;56.934;24.176;2023-02-15T18:13:23;27.17;;;14.70;;
27269;SDS011;14769;56.934;24.176;2023-02-15T18:14:28;32.50;;;15.60;;
27269;SDS011;14769;56.934;24.176;2023-02-15T18:15:35;27.40;;;15.27;;
27269;SDS011;14769;56.934;24.176;2023-02-15T18:16:42;30.25;;;16.10;;
27269;SDS011;14769;56.934;24.176;2023-02-15T18:18:07;32.85;;;16.30;;
27269;SDS011;14769;56.934;24.176;2023-02-15T18:19:15;28.50;;;15.60;;
27269;SDS011;14769;56.934;24.176;2023-02-15T18:20:30;31.25;;;17.17;;
27269;SDS011;14769;56.934;24.176;2023-02-15T18:21:35;36.47;;;17.73;;
27269;SDS011;14769;56.934;24.176;2023-02-15T18:22:37;32.45;;;16.65;;
27269;SDS011;14769;56.934;24.176;2023-02-15T18:23:39;29.02;;;15.93;;
27269;SDS011;14769;56.934;24.176;2023-02-15T18:24:42;33.50;;;17.58;;
27269;SDS011;14769;56.934;24.176;2023-02-15T18:25:54;32.60;;;16.88;;
27269;SDS011;14769;56.934;24.176;2023-02-15T18:26:56;32.60;;;17.27;;
27269;SDS011;14769;56.934;24.176;2023-02-15T18:28:00;31.63;;;17.10;;
27269;SDS011;14769;56.934;24.176;2023-02-15T18:29:06;27.52;;;15.82;;
27269;SDS011;14769;56.934;24.176;2023-02-15T18:30:12;31.80;;;18.23;;
27269;SDS011;14769;56.934;24.176;2023-02-15T18:31:16;34.10;;;18.67;;
27269;SDS011;14769;56.934;24.176;2023-02-15T18:32:24;34.67;;;19.40;;
27269;SDS011;14769;56.934;24.176;2023-02-15T18:33:48;33.05;;;17.02;;
27269;SDS011;14769;56.934;24.176;2023-02-15T18:34:50;29.85;;;15.52;;
27269;SDS011;14769;56.934;24.176;2023-02-15T18:35:56;27.13;;;15.10;;
27269;SDS011;14769;56.934;24.176;2023-02-15T18:36:59;31.40;;;16.30;;
27269;SDS011;14769;56.934;24.176;2023-02-15T18:38:03;33.35;;;16.83;;
27269;SDS011;14769;56.934;24.176;2023-02-15T18:40:34;30.88;;;16.10;;
27269;SDS011;14769;56.934;24.176;2023-02-15T18:41:36;32.92;;;18.20;;
27269;SDS011;14769;56.934;24.176;2023-02-15T18:42:38;32.70;;;18.27;;
27269;SDS011;14769;56.934;24.176;2023-02-15T18:43:48;30.33;;;16.30;;
27269;SDS011;14769;56.934;24.176;2023-02-15T18:44:52;31.75;;;17.65;;
27269;SDS011;14769;56.934;24.176;2023-02-15T18:45:56;29.98;;;17.55;;
27269;SDS011;14769;56.934;24.176;2023-02-15T18:47:01;32.35;;;17.50;;
27269;SDS011;14769;56.934;24.176;2023-02-15T18:48:03;34.95;;;19.17;;
27269;SDS011;14769;56.934;24.176;2023-02-15T18:49:05;38.83;;;21.48;;
27269;SDS011;14769;56.934;24.176;2023-02-15T18:50:10;42.03;;;21.73;;
27269;SDS011;14769;56.934;24.176;2023-02-15T18:51:17;64.32;;;30.23;;
27269;SDS011;14769;56.934;24.176;2023-02-15T18:52:22;75.75;;;37.22;;
27269;SDS011;14769;56.934;24.176;2023-02-15T18:53:28;61.42;;;29.67;;
27269;SDS011;14769;56.934;24.176;2023-02-15T18:54:30;54.08;;;26.90;;
27269;SDS011;14769;56.934;24.176;2023-02-15T18:55:33;49.72;;;25.38;;
27269;SDS011;14769;56.934;24.176;2023-02-15T18:56:36;42.13;;;22.88;;
27269;SDS011;14769;56.934;24.176;2023-02-15T18:57:38;42.33;;;22.10;;
27269;SDS011;14769;56.934;24.176;2023-02-15T18:58:45;31.30;;;17.02;;
27269;SDS011;14769;56.934;24.176;2023-02-15T18:59:50;32.85;;;18.50;;
27269;SDS011;14769;56.934;24.176;2023-02-15T19:00:52;33.47;;;17.20;;
27269;SDS011;14769;56.934;24.176;2023-02-15T19:01:55;36.58;;;18.58;;
27269;SDS011;14769;56.934;24.176;2023-02-15T19:03:00;38.63;;;19.65;;
27269;SDS011;14769;56.934;24.176;2023-02-15T19:04:03;36.60;;;19.83;;
27269;SDS011;14769;56.934;24.176;2023-02-15T19:05:05;41.38;;;21.85;;
27269;SDS011;14769;56.934;24.176;2023-02-15T19:06:08;38.13;;;19.27;;
27269;SDS011;14769;56.934;24.176;2023-02-15T19:07:21;39.47;;;19.17;;
27269;SDS011;14769;56.934;24.176;2023-02-15T19:08:23;37.75;;;19.35;;
27269;SDS011;14769;56.934;24.176;2023-02-15T19:09:25;39.97;;;19.27;;
27269;SDS011;14769;56.934;24.176;2023-02-15T19:10:28;37.67;;;18.38;;
27269;SDS011;14769;56.934;24.176;2023-02-15T19:11:33;31.67;;;16.73;;
27269;SDS011;14769;56.934;24.176;2023-02-15T19:12:35;33.47;;;16.60;;
27269;SDS011;14769;56.934;24.176;2023-02-15T19:13:37;31.98;;;17.45;;
27269;SDS011;14769;56.934;24.176;2023-02-15T19:14:46;34.67;;;18.48;;
27269;SDS011;14769;56.934;24.176;2023-02-15T19:15:48;49.00;;;25.45;;
27269;SDS011;14769;56.934;24.176;2023-02-15T19:16:51;59.30;;;29.45;;
27269;SDS011;14769;56.934;24.176;2023-02-15T19:17:53;64.47;;;30.98;;
27269;SDS011;14769;56.934;24.176;2023-02-15T19:18:55;66.15;;;31.88;;
27269;SDS011;14769;56.934;24.176;2023-02-15T19:19:57;56.30;;;26.25;;
27269;SDS011;14769;56.934;24.176;2023-02-15T19:21:00;54.65;;;28.05;;
27269;SDS011;14769;56.934;24.176;2023-02-15T19:22:02;52.85;;;24.27;;
27269;SDS011;14769;56.934;24.176;2023-02-15T19:23:07;42.45;;;21.23;;
27269;SDS011;14769;56.934;24.176;2023-02-15T19:24:22;46.80;;;21.55;;
27269;SDS011;14769;56.934;24.176;2023-02-15T19:25:42;32.72;;;16.83;;
27269;SDS011;14769;56.934;24.176;2023-02-15T19:26:45;33.95;;;17.60;;
27269;SDS011;14769;56.934;24.176;2023-02-15T19:27:47;36.60;;;20.17;;
27269;SDS011;14769;56.934;24.176;2023-02-15T19:28:49;34.45;;;19.23;;
27269;SDS011;14769;56.934;24.176;2023-02-15T19:29:53;40.05;;;19.55;;
27269;SDS011;14769;56.934;24.176;2023-02-15T19:31:03;36.97;;;20.30;;
27269;SDS011;14769;56.934;24.176;2023-02-15T19:32:07;46.42;;;22.73;;
27269;SDS011;14769;56.934;24.176;2023-02-15T19:33:15;48.40;;;22.83;;
27269;SDS011;14769;56.934;24.176;2023-02-15T19:34:19;40.63;;;21.30;;
27269;SDS011;14769;56.934;24.176;2023-02-15T19:35:21;41.60;;;20.08;;
27269;SDS011;14769;56.934;24.176;2023-02-15T19:36:26;66.82;;;30.73;;
27269;SDS011;14769;56.934;24.176;2023-02-15T19:37:32;71.00;;;32.22;;
27269;SDS011;14769;56.934;24.176;2023-02-15T19:38:37;55.28;;;27.05;;
27269;SDS011;14769;56.934;24.176;2023-02-15T19:39:42;56.90;;;28.40;;
27269;SDS011;14769;56.934;24.176;2023-02-15T19:40:44;58.85;;;29.50;;
27269;SDS011;14769;56.934;24.176;2023-02-15T19:41:46;67.50;;;31.85;;
27269;SDS011;14769;56.934;24.176;2023-02-15T19:42:48;52.70;;;26.65;;
27269;SDS011;14769;56.934;24.176;2023-02-15T19:43:54;44.60;;;22.38;;
27269;SDS011;14769;56.934;24.176;2023-02-15T19:45:17;36.40;;;18.17;;
27269;SDS011;14769;56.934;24.176;2023-02-15T19:46:22;33.85;;;16.90;;
27269;SDS011;14769;56.934;24.176;2023-02-15T19:47:38;30.88;;;16.98;;
27269;SDS011;14769;56.934;24.176;2023-02-15T19:49:10;29.98;;;17.13;;
27269;SDS011;14769;56.934;24.176;2023-02-15T19:50:43;27.70;;;14.90;;
27269;SDS011;14769;56.934;24.176;2023-02-15T19:52:23;26.85;;;14.95;;
27269;SDS011;14769;56.934;24.176;2023-02-15T19:53:34;31.90;;;15.30;;
27269;SDS011;14769;56.934;24.176;2023-02-15T19:54:53;28.50;;;15.02;;
27269;SDS011;14769;56.934;24.176;2023-02-15T19:56:12;26.38;;;14.30;;
27269;SDS011;14769;56.934;24.176;2023-02-15T19:57:22;32.25;;;14.32;;
27269;SDS011;14769;56.934;24.176;2023-02-15T19:58:28;29.90;;;14.75;;
27269;SDS011;14769;56.934;24.176;2023-02-15T19:59:31;29.80;;;15.27;;
27269;SDS011;14769;56.934;24.176;2023-02-15T20:00:34;29.77;;;14.68;;
27269;SDS011;14769;56.934;24.176;2023-02-15T20:01:43;28.45;;;14.52;;
27269;SDS011;14769;56.934;24.176;2023-02-15T20:03:03;26.80;;;14.32;;
27269;SDS011;14769;56.934;24.176;2023-02-15T20:04:10;23.52;;;14.32;;
27269;SDS011;14769;56.934;24.176;2023-02-15T20:07:24;26.42;;;13.25;;
27269;SDS011;14769;56.934;24.176;2023-02-15T20:08:34;28.45;;;14.02;;
27269;SDS011;14769;56.934;24.176;2023-02-15T20:09:36;26.13;;;14.13;;
27269;SDS011;14769;56.934;24.176;2023-02-15T20:10:52;26.35;;;13.70;;
27269;SDS011;14769;56.934;24.176;2023-02-15T20:12:24;26.40;;;12.95;;
27269;SDS011;14769;56.934;24.176;2023-02-15T20:13:27;27.65;;;13.82;;
27269;SDS011;14769;56.934;24.176;2023-02-15T20:14:29;25.83;;;13.55;;
27269;SDS011;14769;56.934;24.176;2023-02-15T20:15:33;24.48;;;14.00;;
27269;SDS011;14769;56.934;24.176;2023-02-15T20:16:36;25.25;;;14.02;;
27269;SDS011;14769;56.934;24.176;2023-02-15T20:18:07;29.63;;;13.63;;
27269;SDS011;14769;56.934;24.176;2023-02-15T20:19:41;29.17;;;13.52;;
27269;SDS011;14769;56.934;24.176;2023-02-15T20:20:45;23.27;;;13.73;;
27269;SDS011;14769;56.934;24.176;2023-02-15T20:22:04;22.63;;;13.90;;
27269;SDS011;14769;56.934;24.176;2023-02-15T20:23:22;27.27;;;13.20;;
27269;SDS011;14769;56.934;24.176;2023-02-15T20:24:37;23.58;;;12.20;;
27269;SDS011;14769;56.934;24.176;2023-02-15T20:27:23;21.38;;;12.13;;
27269;SDS011;14769;56.934;24.176;2023-02-15T20:28:26;26.92;;;12.60;;
27269;SDS011;14769;56.934;24.176;2023-02-15T20:29:32;26.73;;;13.23;;
27269;SDS011;14769;56.934;24.176;2023-02-15T20:30:37;24.58;;;12.23;;
27269;SDS011;14769;56.934;24.176;2023-02-15T20:31:41;27.13;;;12.60;;
27269;SDS011;14769;56.934;24.176;2023-02-15T20:32:43;25.67;;;13.55;;
27269;SDS011;14769;56.934;24.176;2023-02-15T20:33:45;25.25;;;13.30;;
27269;SDS011;14769;56.934;24.176;2023-02-15T20:34:47;22.30;;;13.40;;
27269;SDS011;14769;56.934;24.176;2023-02-15T20:35:52;25.70;;;12.77;;
27269;SDS011;14769;56.934;24.176;2023-02-15T20:36:56;27.52;;;13.95;;
27269;SDS011;14769;56.934;24.176;2023-02-15T20:37:58;22.73;;;13.55;;
27269;SDS011;14769;56.934;24.176;2023-02-15T20:39:02;22.27;;;13.15;;
27269;SDS011;14769;56.934;24.176;2023-02-15T20:40:23;22.35;;;12.80;;
27269;SDS011;14769;56.934;24.176;2023-02-15T20:41:26;29.00;;;13.95;;
27269;SDS011;14769;56.934;24.176;2023-02-15T20:43:40;20.58;;;11.93;;